createdAt,value
2018-07-10T00:00:07.889Z,1.67
2018-07-10T00:07:32.495Z,1.60
2018-07-10T00:12:28.092Z,1.53
2018-07-10T00:17:23.973Z,1.40
2018-07-10T00:22:19.603Z,1.60
2018-07-10T00:27:15.250Z,1.97
2018-07-10T00:32:11.071Z,1.67
2018-07-10T00:37:07.630Z,1.90
2018-07-10T00:42:04.860Z,1.90
2018-07-10T00:47:00.455Z,2.43
2018-07-10T00:51:56.293Z,1.37
2018-07-10T00:56:52.118Z,1.77
2018-07-10T01:01:47.699Z,2.30
2018-07-10T01:06:43.899Z,1.60
2018-07-10T01:11:39.722Z,1.53
2018-07-10T01:16:36.502Z,2.47
2018-07-10T01:21:31.876Z,1.07
2018-07-10T01:26:28.747Z,1.33
2018-07-10T01:31:24.549Z,1.40
2018-07-10T01:36:20.698Z,1.40
2018-07-10T01:41:16.420Z,1.53
2018-07-10T01:46:12.477Z,1.40
2018-07-10T01:51:09.221Z,1.33
2018-07-10T01:56:06.232Z,1.50
2018-07-10T02:01:01.570Z,1.27
2018-07-10T02:05:58.709Z,1.17
2018-07-10T02:10:54.412Z,1.80
2018-07-10T02:15:49.524Z,1.70
2018-07-10T02:20:52.345Z,1.90
2018-07-10T02:25:48.446Z,1.70
2018-07-10T02:30:44.235Z,1.67
2018-07-10T02:35:39.900Z,1.43
2018-07-10T02:40:36.169Z,1.60
2018-07-10T02:45:31.871Z,1.60
2018-07-10T02:50:28.043Z,1.63
2018-07-10T02:55:23.946Z,1.60
2018-07-10T03:00:19.578Z,1.50
2018-07-10T03:05:15.810Z,1.23
2018-07-10T03:10:12.137Z,1.73
2018-07-10T03:15:11.549Z,1.30
2018-07-10T03:20:08.698Z,1.40
2018-07-10T03:25:05.373Z,1.20
2018-07-10T03:30:02.400Z,1.30
2018-07-10T03:34:58.532Z,1.23
2018-07-10T03:39:56.698Z,1.30
2018-07-10T03:44:53.039Z,1.30
2018-07-10T03:49:49.237Z,1.37
2018-07-10T03:54:45.231Z,1.10
2018-07-10T03:59:54.437Z,1.20
2018-07-10T04:04:50.770Z,1.03
2018-07-10T04:09:47.478Z,1.43
2018-07-10T04:14:45.323Z,1.37
2018-07-10T04:19:42.194Z,1.20
2018-07-10T04:24:40.766Z,1.27
2018-07-10T04:29:43.505Z,1.70
2018-07-10T04:34:40.040Z,1.40
2018-07-10T04:39:40.282Z,2.47
2018-07-10T04:44:36.818Z,1.63
2018-07-10T04:49:48.567Z,1.60
2018-07-10T04:55:06.641Z,1.77
2018-07-10T05:00:06.363Z,1.63
2018-07-10T05:05:02.143Z,2.13
2018-07-10T05:09:57.995Z,2.97
2018-07-10T05:14:54.369Z,3.43
2018-07-10T05:19:50.258Z,9.47
2018-07-10T05:24:46.944Z,24.40
2018-07-10T05:29:43.906Z,2.80
2018-07-10T05:34:40.290Z,2.17
2018-07-10T05:39:41.786Z,6.27
2018-07-10T05:44:38.197Z,2.33
2018-07-10T05:49:38.761Z,2.60
2018-07-10T05:54:34.468Z,2.37
2018-07-10T05:59:29.947Z,2.47
2018-07-10T06:04:25.772Z,3.83
2018-07-10T06:09:30.847Z,3.13
2018-07-10T06:14:27.596Z,3.53
2018-07-10T06:19:23.447Z,3.17
2018-07-10T06:24:30.142Z,2.63
2018-07-10T06:29:26.511Z,2.70
2018-07-10T06:34:29.974Z,3.40
2018-07-10T06:39:25.884Z,2.60
2018-07-10T06:44:22.086Z,3.67
2018-07-10T06:49:24.588Z,2.60
2018-07-10T06:54:20.915Z,3.07
2018-07-10T06:59:17.042Z,2.73
2018-07-10T07:04:13.616Z,2.40
2018-07-10T07:09:09.467Z,2.70
2018-07-10T07:14:05.643Z,6.47
2018-07-10T07:19:01.375Z,3.93
2018-07-10T07:23:57.088Z,3.13
2018-07-10T07:28:53.067Z,1.97
2018-07-10T07:33:48.653Z,2.90
2018-07-10T07:38:45.106Z,2.60
2018-07-10T07:43:43.620Z,3.10
2018-07-10T07:48:39.241Z,3.97
2018-07-10T07:53:35.855Z,2.77
2018-07-10T07:58:33.091Z,4.03
2018-07-10T08:03:28.786Z,2.20
2018-07-10T08:08:24.561Z,2.07
2018-07-10T08:13:20.206Z,1.80
2018-07-10T08:18:16.102Z,1.93
2018-07-10T08:23:11.858Z,2.20
2018-07-10T08:28:08.745Z,2.20
2018-07-10T08:33:05.970Z,3.03
2018-07-10T08:38:03.095Z,4.00
2018-07-10T08:42:59.931Z,6.77
2018-07-10T08:47:55.807Z,3.83
2018-07-10T08:52:51.494Z,2.30
2018-07-10T08:57:47.773Z,2.00
2018-07-10T09:02:44.670Z,2.40
2018-07-10T09:07:40.418Z,1.70
2018-07-10T09:12:38.136Z,2.07
2018-07-10T09:17:34.934Z,1.87
2018-07-10T09:22:30.658Z,2.73
2018-07-10T09:27:26.226Z,2.10
2018-07-10T09:32:28.361Z,1.50
2018-07-10T09:37:29.318Z,1.60
2018-07-10T09:42:25.970Z,1.87
2018-07-10T09:47:21.582Z,1.63
2018-07-10T09:52:17.929Z,2.60
2018-07-10T09:57:13.815Z,1.40
2018-07-10T10:02:14.809Z,1.40
2018-07-10T10:07:10.525Z,2.57
2018-07-10T10:12:08.650Z,1.63
2018-07-10T10:17:04.600Z,2.73
2018-07-10T10:22:00.153Z,1.90
2018-07-10T10:26:57.061Z,1.70
2018-07-10T10:31:53.044Z,3.13
2018-07-10T10:36:49.570Z,1.60
2018-07-10T10:41:45.538Z,2.53
2018-07-10T10:46:44.581Z,2.00
2018-07-10T10:51:40.663Z,2.20
2018-07-10T10:56:36.687Z,2.37
2018-07-10T11:01:32.690Z,3.20
2018-07-10T11:06:29.734Z,2.97
2018-07-10T11:11:25.679Z,2.90
2018-07-10T11:16:21.376Z,2.70
2018-07-10T11:21:26.790Z,2.90
2018-07-10T11:26:33.817Z,3.00
2018-07-10T11:31:29.470Z,2.70
2018-07-10T11:36:25.512Z,3.63
2018-07-10T11:41:20.954Z,2.00
2018-07-10T11:46:17.480Z,2.10
2018-07-10T11:51:13.147Z,2.30
2018-07-10T11:56:10.222Z,1.70
2018-07-10T12:01:07.393Z,2.00
2018-07-10T12:06:06.128Z,2.10
2018-07-10T12:11:20.636Z,2.10
2018-07-10T12:16:17.695Z,2.20
2018-07-10T12:21:19.268Z,2.27
2018-07-10T12:26:16.526Z,2.40
2018-07-10T12:31:12.144Z,3.40
2018-07-10T12:36:07.890Z,2.03
2018-07-10T12:41:04.934Z,3.53
2018-07-10T12:46:02.498Z,2.20
2018-07-10T12:50:57.592Z,1.80
2018-07-10T12:55:53.551Z,2.27
2018-07-10T13:00:49.803Z,2.30
2018-07-10T13:05:53.357Z,1.67
2018-07-10T13:10:49.452Z,13.93
2018-07-10T13:15:45.529Z,1.70
2018-07-10T13:20:41.233Z,2.20
2018-07-10T13:25:36.913Z,2.50
2018-07-10T13:30:32.589Z,3.33
2018-07-10T13:35:28.593Z,4.50
2018-07-10T13:40:24.408Z,3.87
2018-07-10T13:45:20.622Z,3.30
2018-07-10T13:50:19.652Z,3.73
2018-07-10T13:55:15.219Z,3.73
2018-07-10T14:00:10.858Z,3.63
2018-07-10T14:05:08.393Z,3.67
2018-07-10T14:10:05.717Z,5.50
2018-07-10T14:15:01.524Z,4.80
2018-07-10T14:19:59.006Z,5.23
2018-07-10T14:24:55.175Z,4.27
2018-07-10T14:29:51.650Z,4.07
2018-07-10T14:34:47.589Z,3.47
2018-07-10T14:39:44.511Z,3.30
2018-07-10T14:44:44.608Z,3.00
2018-07-10T14:49:41.046Z,3.63
2018-07-10T14:54:36.969Z,3.80
2018-07-10T14:59:32.632Z,4.13
2018-07-10T15:04:28.798Z,3.60
2018-07-10T15:09:24.462Z,6.07
2018-07-10T15:14:19.931Z,4.30
2018-07-10T15:19:17.674Z,4.67
2018-07-10T15:24:16.214Z,4.90
2018-07-10T15:29:17.170Z,5.83
2018-07-10T15:34:12.777Z,6.20
2018-07-10T15:39:08.713Z,6.40
2018-07-10T15:44:04.997Z,6.10
2018-07-10T15:49:00.659Z,6.17
2018-07-10T15:53:56.223Z,11.10
2018-07-10T15:58:52.867Z,7.43
2018-07-10T16:03:48.615Z,7.87
2018-07-10T16:08:45.004Z,10.13
2018-07-10T16:13:44.702Z,8.97
2018-07-10T16:18:41.920Z,8.40
2018-07-10T16:23:37.828Z,9.23
2018-07-10T16:28:35.194Z,6.97
2018-07-10T16:33:34.055Z,6.57
2018-07-10T16:38:29.649Z,6.90
2018-07-10T16:43:29.942Z,7.17
2018-07-10T16:49:03.730Z,7.43
2018-07-10T16:54:02.399Z,7.80
2018-07-10T16:58:59.431Z,9.47
2018-07-10T17:03:55.366Z,10.10
2018-07-10T17:08:51.445Z,8.27
2018-07-10T17:13:47.291Z,9.47
2018-07-10T17:18:44.550Z,9.40
2018-07-10T17:23:40.247Z,8.30
2018-07-10T17:28:35.761Z,9.37
2018-07-10T17:33:33.082Z,7.33
2018-07-10T17:38:29.594Z,8.73
2018-07-10T17:43:25.794Z,8.27
2018-07-10T17:48:23.053Z,8.30
2018-07-10T17:53:19.410Z,7.03
2018-07-10T17:58:18.874Z,8.60
2018-07-10T18:03:14.423Z,8.10
2018-07-10T18:08:11.877Z,8.20
2018-07-10T18:13:07.622Z,8.27
2018-07-10T18:18:04.442Z,9.30
2018-07-10T18:23:00.401Z,9.40
2018-07-10T18:27:56.369Z,9.00
2018-07-10T18:32:52.641Z,9.40
2018-07-10T18:37:49.026Z,9.50
2018-07-10T18:42:45.108Z,10.30
2018-07-10T18:47:40.762Z,11.50
2018-07-10T18:52:36.818Z,11.23
2018-07-10T18:58:11.646Z,13.03
2018-07-10T19:03:08.962Z,11.73
2018-07-10T19:08:05.069Z,13.73
2018-07-10T19:13:01.842Z,13.87
2018-07-10T19:17:58.614Z,13.47
2018-07-10T19:23:00.504Z,15.00
2018-07-10T19:27:59.869Z,13.23
2018-07-10T19:32:56.259Z,13.93
2018-07-10T19:37:51.211Z,14.23
2018-07-10T19:42:46.650Z,14.43
2018-07-10T19:47:42.581Z,14.63
2018-07-10T19:52:38.656Z,15.60
2018-07-10T19:57:46.787Z,16.47
2018-07-10T20:02:42.825Z,16.60
2018-07-10T20:07:44.100Z,17.97
2018-07-10T20:13:15.024Z,16.63
2018-07-10T20:18:43.665Z,18.83
2018-07-10T20:23:45.487Z,18.13
2018-07-10T20:29:02.317Z,18.13
2018-07-10T20:34:12.488Z,19.97
2018-07-10T20:39:08.294Z,19.07
2018-07-10T20:44:06.768Z,18.70
2018-07-10T20:49:04.465Z,18.90
2018-07-10T20:55:10.371Z,19.77
2018-07-10T21:00:13.614Z,19.43
2018-07-10T21:05:12.740Z,18.10
2018-07-10T21:10:11.902Z,23.30
2018-07-10T21:15:10.383Z,21.13
2018-07-10T21:20:13.775Z,19.47
2018-07-10T21:25:20.583Z,21.23
2018-07-10T21:30:26.713Z,20.03
2018-07-10T21:35:23.698Z,18.73
2018-07-10T21:40:31.708Z,18.23
2018-07-10T21:47:37.437Z,20.40
2018-07-10T21:52:33.630Z,19.53
2018-07-10T21:57:34.011Z,22.13
2018-07-10T22:02:30.444Z,21.03
2018-07-10T22:07:29.053Z,19.97
2018-07-10T22:12:25.865Z,19.73
2018-07-10T22:17:23.025Z,17.77
2018-07-10T22:22:21.866Z,18.27
2018-07-10T22:27:17.608Z,19.10
2018-07-10T22:32:30.937Z,17.93
2018-07-10T22:37:27.536Z,18.77
2018-07-10T22:42:23.090Z,18.20
2018-07-10T22:47:20.900Z,17.83
2018-07-10T22:52:16.663Z,17.60
2018-07-10T22:57:13.529Z,17.60
2018-07-10T23:02:09.822Z,18.00
2018-07-10T23:07:07.120Z,18.20
2018-07-10T23:12:03.317Z,16.60
2018-07-10T23:16:58.234Z,17.17
2018-07-10T23:21:53.689Z,17.27
2018-07-10T23:26:50.587Z,18.03
2018-07-10T23:31:46.630Z,18.93
2018-07-10T23:36:42.345Z,20.83
2018-07-10T23:41:52.082Z,21.43
2018-07-10T23:46:55.829Z,18.50
2018-07-10T23:51:55.880Z,18.00
2018-07-10T23:56:51.380Z,20.50
